createdAt,value
2018-06-09T00:00:18.915Z,0.00
2018-06-09T00:01:18.891Z,0.00
2018-06-09T00:02:18.872Z,0.00
2018-06-09T00:03:18.851Z,0.00
2018-06-09T00:04:18.829Z,0.00
2018-06-09T00:05:18.809Z,0.00
2018-06-09T00:06:18.790Z,0.00
2018-06-09T00:07:18.767Z,0.00
2018-06-09T00:08:18.747Z,0.00
2018-06-09T00:09:18.725Z,0.00
2018-06-09T00:10:18.709Z,0.00
2018-06-09T00:11:18.685Z,0.00
2018-06-09T00:12:18.666Z,0.00
2018-06-09T00:13:18.647Z,0.00
2018-06-09T00:14:18.622Z,0.00
2018-06-09T00:15:18.632Z,0.00
2018-06-09T00:16:18.785Z,0.00
2018-06-09T00:17:18.763Z,0.00
2018-06-09T00:18:18.539Z,0.00
2018-06-09T00:20:03.496Z,0.00
2018-06-09T00:21:00.651Z,0.00
2018-06-09T00:22:00.833Z,0.00
2018-06-09T00:23:00.610Z,0.00
2018-06-09T00:24:00.617Z,0.00
2018-06-09T00:25:00.769Z,0.00
2018-06-09T00:26:00.547Z,0.00
2018-06-09T00:27:00.528Z,0.00
2018-06-09T00:28:00.509Z,0.00
2018-06-09T00:29:00.485Z,0.00
2018-06-09T00:30:00.463Z,0.00
2018-06-09T00:31:00.443Z,0.00
2018-06-09T00:32:00.421Z,0.00
2018-06-09T00:33:00.401Z,0.00
2018-06-09T00:34:00.379Z,0.00
2018-06-09T00:35:00.359Z,0.00
2018-06-09T00:36:00.339Z,0.00
2018-06-09T00:37:00.317Z,0.00
2018-06-09T00:38:00.296Z,0.00
2018-06-09T00:39:00.275Z,0.00
2018-06-09T00:40:00.257Z,0.00
2018-06-09T00:41:00.238Z,0.00
2018-06-09T00:42:00.212Z,0.00
2018-06-09T00:43:00.192Z,0.00
2018-06-09T00:44:00.173Z,0.00
2018-06-09T00:45:00.149Z,0.00
2018-06-09T00:46:00.132Z,0.00
2018-06-09T00:47:00.108Z,0.00
2018-06-09T00:48:00.088Z,0.00
2018-06-09T00:49:00.070Z,0.00
2018-06-09T00:50:00.051Z,0.00
2018-06-09T00:51:00.027Z,0.00
2018-06-09T00:52:00.153Z,0.00
2018-06-09T00:52:59.981Z,0.00
2018-06-09T00:53:59.960Z,0.00
2018-06-09T00:54:59.940Z,0.00
2018-06-09T00:55:59.919Z,0.00
2018-06-09T00:56:59.897Z,0.00
2018-06-09T00:57:59.878Z,0.00
2018-06-09T00:58:59.860Z,0.00
2018-06-09T00:59:59.836Z,0.00
2018-06-09T01:00:59.812Z,0.00
2018-06-09T01:01:59.792Z,0.00
2018-06-09T01:02:59.798Z,0.00
2018-06-09T01:03:59.750Z,0.00
2018-06-09T01:04:59.729Z,0.00
2018-06-09T01:05:59.708Z,0.00
2018-06-09T01:06:59.689Z,0.00
2018-06-09T01:07:59.668Z,0.00
2018-06-09T01:08:59.648Z,0.00
2018-06-09T01:09:59.622Z,0.00
2018-06-09T01:10:59.603Z,0.00
2018-06-09T01:11:59.584Z,0.00
2018-06-09T01:12:59.560Z,0.00
2018-06-09T01:13:59.539Z,0.00
2018-06-09T01:14:59.522Z,0.00
2018-06-09T01:15:59.498Z,0.00
2018-06-09T01:16:59.476Z,0.00
2018-06-09T01:17:59.454Z,0.00
2018-06-09T01:18:59.435Z,0.00
2018-06-09T01:19:59.414Z,0.00
2018-06-09T01:20:59.392Z,0.00
2018-06-09T01:21:59.371Z,0.00
2018-06-09T01:22:59.350Z,0.00
2018-06-09T01:23:59.331Z,0.00
2018-06-09T01:24:59.306Z,0.00
2018-06-09T01:25:59.287Z,0.00
2018-06-09T01:26:59.264Z,0.00
2018-06-09T01:27:59.248Z,0.00
2018-06-09T01:28:59.224Z,0.00
2018-06-09T01:29:59.203Z,0.00
2018-06-09T01:30:59.182Z,0.00
2018-06-09T01:31:59.162Z,0.00
2018-06-09T01:32:59.141Z,0.00
2018-06-09T01:33:59.118Z,0.00
2018-06-09T01:34:59.097Z,0.00
2018-06-09T01:35:59.078Z,0.00
2018-06-09T01:36:59.056Z,0.00
2018-06-09T01:37:59.034Z,0.00
2018-06-09T01:38:59.014Z,0.00
2018-06-09T01:39:58.996Z,0.00
2018-06-09T01:40:58.971Z,0.00
2018-06-09T01:41:58.950Z,0.00
2018-06-09T01:42:58.928Z,0.00
2018-06-09T01:43:58.909Z,0.00
2018-06-09T01:44:58.887Z,0.00
2018-06-09T01:45:58.866Z,0.00
2018-06-09T01:46:58.846Z,0.00
2018-06-09T01:47:58.824Z,0.00
2018-06-09T01:48:58.802Z,0.00
2018-06-09T01:49:58.783Z,0.00
2018-06-09T01:50:58.763Z,0.00
2018-06-09T01:51:58.741Z,0.00
2018-06-09T01:52:58.720Z,0.00
2018-06-09T01:53:58.706Z,0.00
2018-06-09T01:54:58.678Z,0.00
2018-06-09T01:55:58.658Z,0.00
2018-06-09T01:56:58.637Z,0.00
2018-06-09T01:57:58.615Z,4.00
2018-06-09T01:58:58.594Z,4.00
2018-06-09T01:59:58.574Z,4.00
2018-06-09T02:00:58.554Z,4.00
2018-06-09T02:01:58.532Z,0.00
2018-06-09T02:02:58.511Z,0.00
2018-06-09T02:03:58.498Z,4.00
2018-06-09T02:04:58.469Z,4.00
2018-06-09T02:05:58.449Z,4.00
2018-06-09T02:06:58.428Z,4.00
2018-06-09T02:07:58.408Z,4.00
2018-06-09T02:08:58.391Z,4.00
2018-06-09T02:09:58.367Z,4.00
2018-06-09T02:10:58.346Z,8.00
2018-06-09T02:11:58.324Z,4.00
2018-06-09T02:12:58.307Z,8.00
2018-06-09T02:13:58.281Z,8.00
2018-06-09T02:14:58.264Z,8.00
2018-06-09T02:15:58.241Z,8.00
2018-06-09T02:16:58.224Z,8.00
2018-06-09T02:17:58.198Z,12.00
2018-06-09T02:18:58.183Z,12.00
2018-06-09T02:19:58.158Z,12.00
2018-06-09T02:20:58.134Z,16.00
2018-06-09T02:21:58.115Z,16.00
2018-06-09T02:22:58.093Z,20.00
2018-06-09T02:23:58.074Z,24.00
2018-06-09T02:24:58.055Z,24.00
2018-06-09T02:25:58.030Z,28.00
2018-06-09T02:26:58.010Z,32.00
2018-06-09T02:27:57.989Z,36.00
2018-06-09T02:28:57.967Z,40.00
2018-06-09T02:29:57.948Z,40.00
2018-06-09T02:30:57.926Z,48.00
2018-06-09T02:31:57.905Z,52.00
2018-06-09T02:32:57.887Z,56.00
2018-06-09T02:33:57.863Z,60.00
2018-06-09T02:34:57.842Z,60.00
2018-06-09T02:35:57.826Z,68.00
2018-06-09T02:36:57.804Z,68.00
2018-06-09T02:37:57.778Z,72.00
2018-06-09T02:38:57.758Z,84.00
2018-06-09T02:39:57.742Z,88.00
2018-06-09T02:40:57.716Z,96.00
2018-06-09T02:41:57.697Z,104.00
2018-06-09T02:42:57.674Z,116.00
2018-06-09T02:43:57.661Z,124.00
2018-06-09T02:44:57.631Z,140.00
2018-06-09T02:45:57.611Z,148.00
2018-06-09T02:46:57.590Z,164.00
2018-06-09T02:47:57.568Z,176.00
2018-06-09T02:48:58.100Z,188.00
2018-06-09T02:49:57.527Z,200.00
2018-06-09T02:50:57.511Z,212.00
2018-06-09T02:51:57.485Z,228.00
2018-06-09T02:52:57.463Z,240.00
2018-06-09T02:53:57.442Z,252.00
2018-06-09T02:54:57.428Z,268.00
2018-06-09T02:55:57.417Z,288.00
2018-06-09T02:56:57.382Z,312.00
2018-06-09T02:57:57.359Z,340.00
2018-06-09T02:58:57.338Z,372.00
2018-06-09T02:59:57.317Z,400.00
2018-06-09T03:00:57.296Z,428.00
2018-06-09T03:01:57.275Z,460.00
2018-06-09T03:02:57.259Z,496.00
2018-06-09T03:03:57.237Z,532.00
2018-06-09T03:04:57.211Z,580.00
2018-06-09T03:05:57.194Z,628.00
2018-06-09T03:06:57.170Z,676.00
2018-06-09T03:07:57.152Z,724.00
2018-06-09T03:08:57.128Z,772.00
2018-06-09T03:09:57.109Z,820.00
2018-06-09T03:10:57.086Z,872.00
2018-06-09T03:11:57.066Z,932.00
2018-06-09T03:12:57.044Z,988.00
2018-06-09T03:13:57.027Z,1036.00
2018-06-09T03:14:57.002Z,1064.00
2018-06-09T03:15:56.981Z,1076.00
2018-06-09T03:16:56.962Z,1092.00
2018-06-09T03:17:56.942Z,1128.00
2018-06-09T03:18:56.923Z,1176.00
2018-06-09T03:19:56.915Z,1248.00
2018-06-09T03:20:56.878Z,1344.00
2018-06-09T03:21:56.858Z,1460.00
2018-06-09T03:22:56.839Z,1576.00
2018-06-09T03:23:56.818Z,1668.00
2018-06-09T03:24:56.792Z,1740.00
2018-06-09T03:25:56.772Z,1800.00
2018-06-09T03:26:56.751Z,1856.00
2018-06-09T03:27:56.731Z,1920.00
2018-06-09T03:28:56.710Z,1964.00
2018-06-09T03:29:56.689Z,1988.00
2018-06-09T03:30:56.670Z,1988.00
2018-06-09T03:31:56.648Z,1984.00
2018-06-09T03:32:56.626Z,1984.00
2018-06-09T03:33:56.609Z,2004.00
2018-06-09T03:34:56.585Z,2044.00
2018-06-09T03:35:56.565Z,2112.00
2018-06-09T03:36:56.542Z,2208.00
2018-06-09T03:37:56.528Z,2344.00
2018-06-09T03:38:56.501Z,2520.00
2018-06-09T03:39:56.481Z,2724.00
2018-06-09T03:40:56.462Z,2948.00
2018-06-09T03:41:56.439Z,3176.00
2018-06-09T03:42:56.418Z,3388.00
2018-06-09T03:43:56.397Z,3568.00
2018-06-09T03:44:56.376Z,3692.00
2018-06-09T03:45:56.356Z,3800.00
2018-06-09T03:46:56.336Z,3896.00
2018-06-09T03:47:56.314Z,3992.00
2018-06-09T03:48:56.318Z,4080.00
2018-06-09T03:49:56.279Z,4188.00
2018-06-09T03:50:56.255Z,4296.00
2018-06-09T03:51:56.236Z,4400.00
2018-06-09T03:52:56.212Z,4508.00
2018-06-09T03:53:56.192Z,4616.00
2018-06-09T03:54:56.175Z,4712.00
2018-06-09T03:55:56.152Z,4784.00
2018-06-09T03:56:56.129Z,4808.00
2018-06-09T03:57:56.113Z,4772.00
2018-06-09T03:58:56.090Z,4792.00
2018-06-09T03:59:56.221Z,4860.00
2018-06-09T04:00:56.050Z,4972.00
2018-06-09T04:01:56.030Z,5104.00
2018-06-09T04:02:56.011Z,5212.00
2018-06-09T04:03:55.989Z,5324.00
2018-06-09T04:04:55.968Z,5476.00
2018-06-09T04:05:55.949Z,5688.00
2018-06-09T04:06:55.930Z,5920.00
2018-06-09T04:07:55.912Z,6108.00
2018-06-09T04:08:55.899Z,6276.00
2018-06-09T04:09:55.874Z,6432.00
2018-06-09T04:10:55.853Z,6576.00
2018-06-09T04:11:55.829Z,6684.00
2018-06-09T04:12:55.809Z,6780.00
2018-06-09T04:13:55.792Z,6852.00
2018-06-09T04:14:55.771Z,6964.00
2018-06-09T04:15:55.750Z,7064.00
2018-06-09T04:16:55.732Z,7140.00
2018-06-09T04:17:55.708Z,7248.00
2018-06-09T04:18:55.696Z,7420.00
2018-06-09T04:19:55.673Z,7656.00
2018-06-09T04:20:55.649Z,7932.00
2018-06-09T04:21:55.632Z,8264.00
2018-06-09T04:22:55.611Z,8544.00
2018-06-09T04:23:55.594Z,8780.00
2018-06-09T04:24:55.570Z,8904.00
2018-06-09T04:25:55.554Z,8864.00
2018-06-09T04:26:55.531Z,8720.00
2018-06-09T04:27:55.520Z,8656.00
2018-06-09T04:28:55.490Z,8536.00
2018-06-09T04:29:55.473Z,8244.00
2018-06-09T04:30:55.455Z,7844.00
2018-06-09T04:31:55.436Z,7332.00
2018-06-09T04:32:55.413Z,6776.00
2018-06-09T04:33:55.414Z,6376.00
2018-06-09T04:34:55.374Z,6084.00
2018-06-09T04:35:55.353Z,5856.00
2018-06-09T04:36:55.334Z,5700.00
2018-06-09T04:37:55.315Z,5604.00
2018-06-09T04:38:55.302Z,5576.00
2018-06-09T04:39:55.289Z,5576.00
2018-06-09T04:40:55.259Z,5604.00
2018-06-09T04:41:55.236Z,5644.00
2018-06-09T04:42:55.217Z,5660.00
2018-06-09T04:43:55.197Z,5656.00
2018-06-09T04:44:55.176Z,5672.00
2018-06-09T04:45:55.159Z,5692.00
2018-06-09T04:46:55.137Z,5712.00
2018-06-09T04:47:55.118Z,5788.00
2018-06-09T04:48:55.100Z,5936.00
2018-06-09T04:49:55.078Z,6332.00
2018-06-09T04:50:55.059Z,6316.00
2018-06-09T04:51:55.039Z,6140.00
2018-06-09T04:52:55.022Z,5832.00
2018-06-09T04:53:55.002Z,5668.00
2018-06-09T04:54:54.979Z,5724.00
2018-06-09T04:55:54.959Z,5796.00
2018-06-09T04:56:54.939Z,5868.00
2018-06-09T04:57:54.920Z,5916.00
2018-06-09T04:58:54.900Z,5956.00
2018-06-09T04:59:54.887Z,6008.00
2018-06-09T05:00:54.858Z,6064.00
2018-06-09T05:01:54.840Z,6096.00
2018-06-09T05:02:54.819Z,6352.00
2018-06-09T05:03:54.805Z,6792.00
2018-06-09T05:04:54.779Z,6672.00
2018-06-09T05:05:54.759Z,6044.00
2018-06-09T05:06:54.747Z,6048.00
2018-06-09T05:07:54.720Z,5776.00
2018-06-09T05:08:54.700Z,5560.00
2018-06-09T05:09:54.683Z,5548.00
2018-06-09T05:10:54.660Z,5700.00
2018-06-09T05:11:54.641Z,5740.00
2018-06-09T05:12:54.628Z,5864.00
2018-06-09T05:13:54.601Z,5980.00
2018-06-09T05:14:54.581Z,6076.00
2018-06-09T05:15:54.561Z,6124.00
2018-06-09T05:16:54.540Z,6128.00
2018-06-09T05:17:54.521Z,6120.00
2018-06-09T05:18:54.511Z,6108.00
2018-06-09T05:19:54.484Z,6092.00
2018-06-09T05:20:54.461Z,6064.00
2018-06-09T05:21:54.441Z,6028.00
2018-06-09T05:22:54.421Z,6008.00
2018-06-09T05:23:54.401Z,6008.00
2018-06-09T05:24:54.380Z,6076.00
2018-06-09T05:25:54.368Z,6176.00
2018-06-09T05:26:54.341Z,6384.00
2018-06-09T05:27:54.325Z,6440.00
2018-06-09T05:28:54.301Z,6564.00
2018-06-09T05:29:54.288Z,6736.00
2018-06-09T05:30:54.262Z,6920.00
2018-06-09T05:31:54.240Z,7076.00
2018-06-09T05:32:54.222Z,7172.00
2018-06-09T05:33:54.200Z,7200.00
2018-06-09T05:34:54.181Z,7152.00
2018-06-09T05:35:54.160Z,7028.00
2018-06-09T05:36:54.139Z,6872.00
2018-06-09T05:37:54.120Z,6688.00
2018-06-09T05:38:54.100Z,6508.00
2018-06-09T05:39:54.080Z,6376.00
2018-06-09T05:40:54.059Z,6320.00
2018-06-09T05:41:54.041Z,6316.00
2018-06-09T05:42:54.046Z,6332.00
2018-06-09T05:43:53.998Z,6340.00
2018-06-09T05:44:53.979Z,6344.00
2018-06-09T05:45:54.858Z,6376.00
2018-06-09T05:46:53.940Z,6456.00
2018-06-09T05:47:53.916Z,6540.00
2018-06-09T05:48:53.904Z,6620.00
2018-06-09T05:49:53.875Z,6724.00
2018-06-09T05:50:53.860Z,6824.00
2018-06-09T05:51:53.835Z,6856.00
2018-06-09T05:52:53.813Z,6824.00
2018-06-09T05:53:53.795Z,6820.00
2018-06-09T05:54:53.774Z,6836.00
2018-06-09T05:55:53.754Z,6864.00
2018-06-09T05:56:53.733Z,6912.00
2018-06-09T05:57:53.711Z,6960.00
2018-06-09T05:58:53.692Z,7020.00
2018-06-09T05:59:53.676Z,7052.00
2018-06-09T06:00:53.652Z,7096.00
2018-06-09T06:01:53.630Z,7124.00
2018-06-09T06:02:53.608Z,7152.00
2018-06-09T06:03:53.593Z,7168.00
2018-06-09T06:04:53.572Z,7176.00
2018-06-09T06:05:53.549Z,7188.00
2018-06-09T06:06:53.528Z,7200.00
2018-06-09T06:07:53.508Z,7200.00
2018-06-09T06:08:53.686Z,7228.00
2018-06-09T06:09:53.499Z,7332.00
2018-06-09T06:10:53.446Z,7456.00
2018-06-09T06:11:53.426Z,7636.00
2018-06-09T06:12:53.405Z,7800.00
2018-06-09T06:13:53.384Z,7932.00
2018-06-09T06:14:53.364Z,8044.00
2018-06-09T06:15:53.342Z,8120.00
2018-06-09T06:16:53.323Z,8168.00
2018-06-09T06:17:53.302Z,8136.00
2018-06-09T06:18:53.324Z,8040.00
2018-06-09T06:19:53.262Z,7892.00
2018-06-09T06:20:53.244Z,7752.00
2018-06-09T06:21:53.220Z,7652.00
2018-06-09T06:22:53.204Z,7616.00
2018-06-09T06:23:53.182Z,7628.00
2018-06-09T06:24:53.159Z,7676.00
2018-06-09T06:25:53.139Z,7808.00
2018-06-09T06:26:53.122Z,8032.00
2018-06-09T06:27:53.099Z,8360.00
2018-06-09T06:28:53.079Z,8692.00
2018-06-09T06:29:53.057Z,9032.00
2018-06-09T06:30:53.037Z,9312.00
2018-06-09T06:31:53.028Z,9524.00
2018-06-09T06:32:52.996Z,9628.00
2018-06-09T06:33:52.977Z,9688.00
2018-06-09T06:34:52.959Z,9724.00
2018-06-09T06:35:52.935Z,9832.00
2018-06-09T06:36:52.919Z,10012.00
2018-06-09T06:37:52.893Z,10272.00
2018-06-09T06:38:52.880Z,10632.00
2018-06-09T06:39:52.854Z,11064.00
2018-06-09T06:40:52.836Z,11556.00
2018-06-09T06:41:52.813Z,11980.00
2018-06-09T06:42:52.791Z,12252.00
2018-06-09T06:43:52.773Z,12384.00
2018-06-09T06:44:52.750Z,12336.00
2018-06-09T06:45:52.730Z,12132.00
2018-06-09T06:46:52.709Z,11824.00
2018-06-09T06:47:52.690Z,11496.00
2018-06-09T06:48:52.669Z,11232.00
2018-06-09T06:49:52.798Z,11064.00
2018-06-09T06:50:52.629Z,11000.00
2018-06-09T06:51:52.611Z,11028.00
2018-06-09T06:52:52.587Z,11188.00
2018-06-09T06:53:52.569Z,11456.00
2018-06-09T06:54:52.547Z,11768.00
2018-06-09T06:55:52.528Z,12084.00
2018-06-09T06:56:52.508Z,12332.00
2018-06-09T06:57:52.486Z,12476.00
2018-06-09T06:58:52.472Z,12512.00
2018-06-09T06:59:52.447Z,12440.00
2018-06-09T07:00:52.425Z,12324.00
2018-06-09T07:01:52.406Z,12244.00
2018-06-09T07:02:52.386Z,12308.00
2018-06-09T07:03:52.368Z,12552.00
2018-06-09T07:04:52.347Z,12996.00
2018-06-09T07:05:52.325Z,13580.00
2018-06-09T07:06:52.309Z,14252.00
2018-06-09T07:07:52.318Z,14884.00
2018-06-09T07:08:52.263Z,15352.00
2018-06-09T07:09:52.245Z,15560.00
2018-06-09T07:10:52.226Z,15544.00
2018-06-09T07:11:52.206Z,15360.00
2018-06-09T07:12:52.191Z,15108.00
2018-06-09T07:13:52.165Z,14956.00
2018-06-09T07:14:52.153Z,14904.00
2018-06-09T07:15:52.125Z,14972.00
2018-06-09T07:16:52.106Z,15180.00
2018-06-09T07:17:52.085Z,15544.00
2018-06-09T07:18:52.065Z,16044.00
2018-06-09T07:19:52.046Z,16588.00
2018-06-09T07:20:52.026Z,17152.00
2018-06-09T07:21:52.006Z,17344.00
2018-06-09T07:22:51.986Z,17344.00
2018-06-09T07:23:52.171Z,17312.00
2018-06-09T07:24:51.946Z,17376.00
2018-06-09T07:25:51.931Z,17632.00
2018-06-09T07:26:51.907Z,18208.00
2018-06-09T07:27:51.889Z,19136.00
2018-06-09T07:28:51.868Z,20256.00
2018-06-09T07:29:51.849Z,21472.00
2018-06-09T07:30:52.033Z,22560.00
2018-06-09T07:31:51.811Z,23360.00
2018-06-09T07:32:51.791Z,23808.00
2018-06-09T07:33:51.772Z,23456.00
2018-06-09T07:34:51.754Z,22880.00
2018-06-09T07:35:51.737Z,22496.00
2018-06-09T07:36:51.713Z,22400.00
2018-06-09T07:37:51.694Z,22816.00
2018-06-09T07:38:51.675Z,23616.00
2018-06-09T07:39:51.656Z,24352.00
2018-06-09T07:40:51.839Z,25024.00
2018-06-09T07:41:51.621Z,25824.00
2018-06-09T07:42:51.599Z,26624.00
2018-06-09T07:43:51.583Z,27616.00
2018-06-09T07:44:51.561Z,28960.00
2018-06-09T07:45:51.543Z,30624.00
2018-06-09T07:46:51.526Z,32736.00
2018-06-09T07:47:51.513Z,38432.00
2018-06-09T07:48:51.487Z,34944.00
2018-06-09T07:49:51.672Z,36320.00
2018-06-09T07:50:51.653Z,37248.00
2018-06-09T07:51:51.445Z,38784.00
2018-06-09T07:52:51.414Z,40512.00
2018-06-09T07:53:51.396Z,42080.00
2018-06-09T07:54:51.378Z,43296.00
2018-06-09T07:55:51.368Z,44128.00
2018-06-09T07:56:51.549Z,44800.00
2018-06-09T07:57:51.528Z,45472.00
2018-06-09T07:58:51.309Z,46048.00
2018-06-09T07:59:51.292Z,46912.00
2018-06-09T08:00:51.425Z,49152.00
2018-06-09T08:01:51.459Z,50464.00
2018-06-09T08:02:51.448Z,56192.00
2018-06-09T08:03:51.830Z,57312.00
2018-06-09T08:04:51.206Z,54240.00
2018-06-09T08:05:54.278Z,54368.00
2018-06-09T08:06:54.012Z,53760.00
2018-06-09T08:07:51.359Z,55168.00
2018-06-09T08:08:51.139Z,56608.00
2018-06-09T08:09:51.135Z,62624.00
2018-06-09T08:10:51.108Z,59456.00
2018-06-09T08:11:51.094Z,61536.00
2018-06-09T08:12:51.075Z,54912.00
2018-06-09T08:13:51.265Z,54784.00
2018-06-09T08:14:51.247Z,61728.00
2018-06-09T08:15:51.234Z,71296.00
2018-06-09T08:16:51.215Z,74592.00
2018-06-09T08:17:51.199Z,67904.00
2018-06-09T08:18:51.185Z,68800.00
2018-06-09T08:19:50.970Z,81248.00
2018-06-09T08:20:51.154Z,84416.00
2018-06-09T08:21:50.938Z,75392.00
2018-06-09T08:22:51.125Z,86464.00
2018-06-09T08:23:51.112Z,74720.00
2018-06-09T08:24:51.096Z,69216.00
2018-06-09T08:25:51.081Z,63360.00
2018-06-09T08:26:51.069Z,71616.00
2018-06-09T08:27:50.854Z,83072.00
2018-06-09T08:28:50.843Z,67616.00
2018-06-09T08:29:50.826Z,74944.00
2018-06-09T08:30:53.645Z,72192.00
2018-06-09T08:31:51.003Z,62656.00
2018-06-09T08:32:50.988Z,64128.00
2018-06-09T08:33:50.975Z,78240.00
2018-06-09T08:34:51.772Z,81760.00
2018-06-09T08:35:50.751Z,83712.00
2018-06-09T08:36:50.937Z,87936.00
2018-06-09T08:37:50.723Z,86336.00
2018-06-09T08:38:51.520Z,86336.00
2018-06-09T08:39:52.116Z,90240.00
2018-06-09T08:40:50.888Z,72160.00
2018-06-09T08:41:50.673Z,68864.00
2018-06-09T08:42:50.864Z,64096.00
2018-06-09T08:43:50.650Z,71584.00
2018-06-09T08:44:50.639Z,89312.00
2018-06-09T08:45:50.626Z,78176.00
2018-06-09T08:46:50.825Z,75872.00
2018-06-09T08:47:50.601Z,87712.00
2018-06-09T08:48:50.590Z,72832.00
2018-06-09T08:49:50.578Z,80992.00
2018-06-09T08:50:50.771Z,91584.00
2018-06-09T08:51:50.555Z,79744.00
2018-06-09T08:52:50.542Z,65024.00
2018-06-09T08:53:50.531Z,61952.00
2018-06-09T08:54:50.533Z,60768.00
2018-06-09T08:55:50.508Z,57344.00
2018-06-09T08:56:50.509Z,56320.00
2018-06-09T08:57:50.483Z,55776.00
2018-06-09T08:58:50.470Z,57824.00
2018-06-09T08:59:50.458Z,62048.00
2018-06-09T09:00:50.447Z,64896.00
2018-06-09T09:01:50.435Z,67904.00
2018-06-09T09:02:50.429Z,65056.00
2018-06-09T09:03:50.410Z,71008.00
2018-06-09T09:04:50.550Z,70016.00
2018-06-09T09:05:50.389Z,60128.00
2018-06-09T09:06:50.373Z,48064.00
2018-06-09T09:07:50.361Z,47552.00
2018-06-09T09:08:50.354Z,48192.00
2018-06-09T09:09:50.542Z,50144.00
2018-06-09T09:11:36.117Z,51776.00
2018-06-09T09:12:33.482Z,52928.00
2018-06-09T09:13:32.661Z,77600.00
2018-06-09T09:14:32.650Z,68800.00
2018-06-09T09:15:32.432Z,64512.00
2018-06-09T09:16:33.085Z,92352.00
2018-06-09T09:17:32.608Z,95488.00
2018-06-09T09:18:32.393Z,97728.00
2018-06-09T09:19:32.384Z,94112.00
2018-06-09T09:20:32.367Z,83040.00
2018-06-09T09:21:35.182Z,89280.00
2018-06-09T09:22:32.545Z,88192.00
2018-06-09T09:24:17.318Z,89600.00
2018-06-09T09:25:14.682Z,76224.00
2018-06-09T09:26:14.468Z,87744.00
2018-06-09T09:27:14.659Z,84768.00
2018-06-09T09:28:14.450Z,76352.00
2018-06-09T09:29:14.635Z,77472.00
2018-06-09T09:30:14.627Z,79392.00
2018-06-09T09:31:14.617Z,74560.00
2018-06-09T09:32:14.459Z,77472.00
2018-06-09T09:33:14.386Z,82496.00
2018-06-09T09:34:14.376Z,79040.00
2018-06-09T09:35:14.567Z,82720.00
2018-06-09T09:36:14.354Z,94176.00
2018-06-09T09:37:14.549Z,80928.00
2018-06-09T09:38:14.537Z,76160.00
2018-06-09T09:39:14.320Z,87040.00
2018-06-09T09:40:14.309Z,69952.00
2018-06-09T09:41:14.299Z,87808.00
2018-06-09T09:42:14.488Z,79648.00
2018-06-09T09:43:14.276Z,103136.00
2018-06-09T09:44:14.469Z,82176.00
2018-06-09T09:45:14.253Z,94464.00
2018-06-09T09:46:14.293Z,94016.00
2018-06-09T09:47:14.431Z,79456.00
2018-06-09T09:48:14.221Z,91040.00
2018-06-09T09:49:14.207Z,97184.00
2018-06-09T09:50:56.561Z,84256.00
2018-06-09T09:51:56.347Z,90432.00
2018-06-09T09:52:56.335Z,88448.00
2018-06-09T09:53:56.529Z,70976.00
2018-06-09T09:54:56.568Z,88896.00
2018-06-09T09:55:56.505Z,69472.00
2018-06-09T09:56:56.298Z,67584.00
2018-06-09T09:57:56.283Z,95168.00
2018-06-09T09:58:56.269Z,71328.00
2018-06-09T09:59:56.257Z,76192.00
2018-06-09T10:00:56.448Z,100224.00
2018-06-09T10:01:56.235Z,88160.00
2018-06-09T10:02:56.239Z,88800.00
2018-06-09T10:03:56.212Z,81152.00
2018-06-09T10:04:56.357Z,85664.00
2018-06-09T10:05:56.191Z,89920.00
2018-06-09T10:06:56.182Z,96064.00
2018-06-09T10:07:56.169Z,99264.00
2018-06-09T10:08:56.164Z,101280.00
2018-06-09T10:09:56.148Z,102272.00
2018-06-09T10:10:56.135Z,101248.00
2018-06-09T10:11:56.328Z,98144.00
2018-06-09T10:12:56.316Z,101824.00
2018-06-09T10:13:59.736Z,109088.00
2018-06-09T10:14:56.296Z,111392.00
2018-06-09T10:15:56.284Z,110976.00
2018-06-09T10:18:20.602Z,107744.00
2018-06-09T10:19:20.599Z,108192.00
2018-06-09T10:20:20.580Z,109600.00
2018-06-09T10:21:20.369Z,111968.00
2018-06-09T10:22:20.363Z,102112.00
2018-06-09T10:23:20.350Z,106880.00
2018-06-09T10:24:20.341Z,94656.00
2018-06-09T10:25:20.335Z,95680.00
2018-06-09T10:26:20.324Z,81568.00
2018-06-09T10:27:20.315Z,86400.00
2018-06-09T10:28:20.304Z,84928.00
2018-06-09T10:29:20.296Z,82720.00
2018-06-09T10:30:20.285Z,79520.00
2018-06-09T10:31:20.277Z,71264.00
2018-06-09T10:32:20.266Z,72672.00
2018-06-09T10:33:20.259Z,70592.00
2018-06-09T10:34:20.250Z,69024.00
2018-06-09T10:35:20.236Z,70016.00
2018-06-09T10:36:20.377Z,68736.00
2018-06-09T10:37:20.218Z,66752.00
2018-06-09T10:38:20.208Z,67840.00
2018-06-09T10:39:20.197Z,71008.00
2018-06-09T10:40:20.186Z,80800.00
2018-06-09T10:41:20.176Z,78720.00
2018-06-09T10:42:20.175Z,80800.00
2018-06-09T10:43:20.154Z,78368.00
2018-06-09T10:44:20.143Z,77536.00
2018-06-09T10:45:20.141Z,80256.00
2018-06-09T10:46:20.125Z,98528.00
2018-06-09T10:47:20.111Z,79872.00
2018-06-09T10:48:20.100Z,84384.00
2018-06-09T10:49:20.088Z,79008.00
2018-06-09T10:50:20.079Z,80512.00
2018-06-09T10:51:20.073Z,78912.00
2018-06-09T10:52:20.056Z,76032.00
2018-06-09T10:53:20.048Z,76128.00
2018-06-09T10:54:20.040Z,79040.00
2018-06-09T10:55:20.023Z,77824.00
2018-06-09T10:56:20.013Z,84096.00
2018-06-09T10:57:20.004Z,90048.00
2018-06-09T10:58:19.993Z,78368.00
2018-06-09T10:59:19.979Z,86720.00
2018-06-09T11:00:19.970Z,70624.00
2018-06-09T11:01:19.958Z,72768.00
2018-06-09T11:02:19.952Z,74432.00
2018-06-09T11:03:19.937Z,72864.00
2018-06-09T11:04:19.925Z,68960.00
2018-06-09T11:05:19.913Z,70496.00
2018-06-09T11:06:19.903Z,82688.00
2018-06-09T11:07:19.892Z,65216.00
2018-06-09T11:08:19.879Z,68256.00
2018-06-09T11:09:19.876Z,67488.00
2018-06-09T11:10:19.858Z,65152.00
2018-06-09T11:11:19.849Z,65056.00
2018-06-09T11:12:20.035Z,65888.00
2018-06-09T11:13:20.229Z,65344.00
2018-06-09T11:14:19.812Z,70080.00
2018-06-09T11:15:19.801Z,72544.00
2018-06-09T11:16:19.789Z,76512.00
2018-06-09T11:17:19.781Z,77056.00
2018-06-09T11:18:19.812Z,65856.00
2018-06-09T11:19:19.754Z,67936.00
2018-06-09T11:20:19.753Z,77504.00
2018-06-09T11:21:19.734Z,79136.00
2018-06-09T11:22:19.720Z,80704.00
2018-06-09T11:23:19.706Z,92064.00
2018-06-09T11:24:19.704Z,97728.00
2018-06-09T11:25:19.688Z,78336.00
2018-06-09T11:26:19.676Z,74336.00
2018-06-09T11:27:19.665Z,73824.00
2018-06-09T11:28:19.655Z,91360.00
2018-06-09T11:29:19.641Z,88544.00
2018-06-09T11:30:19.630Z,84192.00
2018-06-09T11:31:19.618Z,80320.00
2018-06-09T11:32:19.611Z,85952.00
2018-06-09T11:33:19.597Z,99264.00
2018-06-09T11:34:19.593Z,97536.00
2018-06-09T11:35:19.577Z,95456.00
2018-06-09T11:36:19.564Z,91872.00
2018-06-09T11:37:19.553Z,92224.00
2018-06-09T11:38:19.542Z,88256.00
2018-06-09T11:39:19.532Z,76928.00
2018-06-09T11:40:19.522Z,74400.00
2018-06-09T11:41:19.511Z,77056.00
2018-06-09T11:42:19.502Z,77600.00
2018-06-09T11:43:19.493Z,81248.00
2018-06-09T11:44:19.480Z,74208.00
2018-06-09T11:45:19.477Z,80128.00
2018-06-09T11:46:19.462Z,79168.00
2018-06-09T11:47:19.652Z,83040.00
2018-06-09T11:48:19.441Z,83296.00
2018-06-09T11:49:19.432Z,84160.00
2018-06-09T11:50:19.421Z,78432.00
2018-06-09T11:51:19.411Z,78144.00
2018-06-09T11:52:19.401Z,82144.00
2018-06-09T11:53:19.391Z,83744.00
2018-06-09T11:54:19.381Z,81024.00
2018-06-09T11:55:19.371Z,79584.00
2018-06-09T11:56:19.365Z,81440.00
2018-06-09T11:57:19.351Z,84832.00
2018-06-09T11:58:19.345Z,79520.00
2018-06-09T11:59:19.330Z,77664.00
2018-06-09T12:00:19.323Z,81312.00
2018-06-09T12:01:19.311Z,79936.00
2018-06-09T12:02:19.300Z,80832.00
2018-06-09T12:03:19.289Z,83712.00
2018-06-09T12:04:19.293Z,84192.00
2018-06-09T12:05:19.269Z,85696.00
2018-06-09T12:06:19.264Z,88448.00
2018-06-09T12:07:19.249Z,89664.00
2018-06-09T12:08:19.284Z,94304.00
2018-06-09T12:09:19.231Z,101088.00
2018-06-09T12:10:19.220Z,102528.00
2018-06-09T12:11:19.209Z,100896.00
2018-06-09T12:12:19.201Z,99648.00
2018-06-09T12:13:19.191Z,93536.00